sensor_id;sensor_type;location;lat;lon;timestamp;pressure;altitude;pressure_sealevel;temperature
63220;BMP180;49320;52.512;13.448;2023-03-13T00:01:23;100150.00;;;13.90
63220;BMP180;49320;52.512;13.448;2023-03-13T00:03:50;100154.00;;;13.90
63220;BMP180;49320;52.512;13.448;2023-03-13T00:06:18;100153.00;;;13.90
63220;BMP180;49320;52.512;13.448;2023-03-13T00:08:45;100151.00;;;13.90
63220;BMP180;49320;52.512;13.448;2023-03-13T00:11:14;100141.00;;;13.90
63220;BMP180;49320;52.512;13.448;2023-03-13T00:13:42;100155.00;;;13.90
63220;BMP180;49320;52.512;13.448;2023-03-13T00:16:15;100142.00;;;13.90
63220;BMP180;49320;52.512;13.448;2023-03-13T00:18:50;100142.00;;;14.00
63220;BMP180;49320;52.512;13.448;2023-03-13T00:21:19;100143.00;;;14.00
63220;BMP180;49320;52.512;13.448;2023-03-13T00:23:47;100133.00;;;14.00
63220;BMP180;49320;52.512;13.448;2023-03-13T00:26:18;100139.00;;;14.00
63220;BMP180;49320;52.512;13.448;2023-03-13T00:28:47;100143.00;;;14.00
63220;BMP180;49320;52.512;13.448;2023-03-13T00:31:18;100131.00;;;14.00
63220;BMP180;49320;52.512;13.448;2023-03-13T00:33:48;100139.00;;;14.00
63220;BMP180;49320;52.512;13.448;2023-03-13T00:36:22;100138.00;;;14.00
63220;BMP180;49320;52.512;13.448;2023-03-13T00:38:50;100137.00;;;14.00
63220;BMP180;49320;52.512;13.448;2023-03-13T00:41:20;100136.00;;;14.10
63220;BMP180;49320;52.512;13.448;2023-03-13T00:43:48;100133.00;;;14.10
63220;BMP180;49320;52.512;13.448;2023-03-13T00:46:18;100125.00;;;14.10
63220;BMP180;49320;52.512;13.448;2023-03-13T00:48:46;100121.00;;;14.10
63220;BMP180;49320;52.512;13.448;2023-03-13T00:51:15;100117.00;;;14.20
63220;BMP180;49320;52.512;13.448;2023-03-13T00:53:42;100106.00;;;14.20
63220;BMP180;49320;52.512;13.448;2023-03-13T00:56:15;100105.00;;;14.20
63220;BMP180;49320;52.512;13.448;2023-03-13T00:58:44;100101.00;;;14.20
63220;BMP180;49320;52.512;13.448;2023-03-13T01:01:25;100096.00;;;14.20
63220;BMP180;49320;52.512;13.448;2023-03-13T01:03:58;100101.00;;;14.20
63220;BMP180;49320;52.512;13.448;2023-03-13T01:06:29;100096.00;;;14.30
63220;BMP180;49320;52.512;13.448;2023-03-13T01:08:56;100099.00;;;14.30
63220;BMP180;49320;52.512;13.448;2023-03-13T01:11:27;100101.00;;;14.30
63220;BMP180;49320;52.512;13.448;2023-03-13T01:14:04;100087.00;;;14.40
63220;BMP180;49320;52.512;13.448;2023-03-13T01:16:34;100095.00;;;14.40
63220;BMP180;49320;52.512;13.448;2023-03-13T01:19:06;100086.00;;;14.40
63220;BMP180;49320;52.512;13.448;2023-03-13T01:21:34;100089.00;;;14.50
63220;BMP180;49320;52.512;13.448;2023-03-13T01:24:02;100090.00;;;14.50
63220;BMP180;49320;52.512;13.448;2023-03-13T01:26:28;100086.00;;;14.60
63220;BMP180;49320;52.512;13.448;2023-03-13T01:28:55;100084.00;;;14.60
63220;BMP180;49320;52.512;13.448;2023-03-13T01:33:56;100103.00;;;14.60
63220;BMP180;49320;52.512;13.448;2023-03-13T01:36:24;100094.00;;;14.60
63220;BMP180;49320;52.512;13.448;2023-03-13T01:38:54;100100.00;;;14.60
63220;BMP180;49320;52.512;13.448;2023-03-13T01:41:22;100096.00;;;14.60
63220;BMP180;49320;52.512;13.448;2023-03-13T01:43:50;100092.00;;;14.70
63220;BMP180;49320;52.512;13.448;2023-03-13T01:46:19;100091.00;;;14.70
63220;BMP180;49320;52.512;13.448;2023-03-13T01:49:03;100078.00;;;14.70
63220;BMP180;49320;52.512;13.448;2023-03-13T01:55:01;100085.00;;;14.80
63220;BMP180;49320;52.512;13.448;2023-03-13T01:57:33;100067.00;;;14.80
63220;BMP180;49320;52.512;13.448;2023-03-13T02:00:12;100067.00;;;14.80
63220;BMP180;49320;52.512;13.448;2023-03-13T02:02:46;100053.00;;;14.80
63220;BMP180;49320;52.512;13.448;2023-03-13T02:05:16;100057.00;;;14.80
63220;BMP180;49320;52.512;13.448;2023-03-13T02:10:23;100059.00;;;14.80
63220;BMP180;49320;52.512;13.448;2023-03-13T02:12:52;100045.00;;;14.90
63220;BMP180;49320;52.512;13.448;2023-03-13T02:15:22;100048.00;;;14.90
63220;BMP180;49320;52.512;13.448;2023-03-13T02:17:51;100032.00;;;14.90
63220;BMP180;49320;52.512;13.448;2023-03-13T02:20:19;100026.00;;;14.90
63220;BMP180;49320;52.512;13.448;2023-03-13T02:25:51;100026.00;;;14.90
63220;BMP180;49320;52.512;13.448;2023-03-13T02:28:24;100035.00;;;14.90
63220;BMP180;49320;52.512;13.448;2023-03-13T02:30:54;100023.00;;;14.90
63220;BMP180;49320;52.512;13.448;2023-03-13T02:33:27;100028.00;;;14.90
63220;BMP180;49320;52.512;13.448;2023-03-13T02:35:55;100014.00;;;14.90
63220;BMP180;49320;52.512;13.448;2023-03-13T02:38:26;100016.00;;;14.90
63220;BMP180;49320;52.512;13.448;2023-03-13T02:40:55;100021.00;;;14.90
63220;BMP180;49320;52.512;13.448;2023-03-13T02:43:33;100014.00;;;14.90
63220;BMP180;49320;52.512;13.448;2023-03-13T02:46:09;100012.00;;;14.90
63220;BMP180;49320;52.512;13.448;2023-03-13T02:48:49;100008.00;;;15.00
63220;BMP180;49320;52.512;13.448;2023-03-13T02:51:36;100017.00;;;15.00
63220;BMP180;49320;52.512;13.448;2023-03-13T02:54:11;99998.00;;;15.00
63220;BMP180;49320;52.512;13.448;2023-03-13T02:56:42;100000.00;;;15.00
63220;BMP180;49320;52.512;13.448;2023-03-13T02:59:09;99987.00;;;15.00
63220;BMP180;49320;52.512;13.448;2023-03-13T03:01:36;99986.00;;;15.00
63220;BMP180;49320;52.512;13.448;2023-03-13T03:04:03;99985.00;;;15.00
63220;BMP180;49320;52.512;13.448;2023-03-13T03:06:30;99973.00;;;15.00
63220;BMP180;49320;52.512;13.448;2023-03-13T03:08:57;99969.00;;;15.10
63220;BMP180;49320;52.512;13.448;2023-03-13T03:11:24;99965.00;;;15.10
63220;BMP180;49320;52.512;13.448;2023-03-13T03:13:50;99960.00;;;15.10
63220;BMP180;49320;52.512;13.448;2023-03-13T03:16:17;99960.00;;;15.10
63220;BMP180;49320;52.512;13.448;2023-03-13T03:18:44;99947.00;;;15.10
63220;BMP180;49320;52.512;13.448;2023-03-13T03:21:12;99943.00;;;15.10
63220;BMP180;49320;52.512;13.448;2023-03-13T03:23:38;99946.00;;;15.10
63220;BMP180;49320;52.512;13.448;2023-03-13T03:26:06;99941.00;;;15.20
63220;BMP180;49320;52.512;13.448;2023-03-13T03:28:33;99943.00;;;15.20
63220;BMP180;49320;52.512;13.448;2023-03-13T03:31:05;99938.00;;;15.20
63220;BMP180;49320;52.512;13.448;2023-03-13T03:33:32;99934.00;;;15.20
63220;BMP180;49320;52.512;13.448;2023-03-13T03:36:06;99945.00;;;15.20
63220;BMP180;49320;52.512;13.448;2023-03-13T03:38:34;99942.00;;;15.20
63220;BMP180;49320;52.512;13.448;2023-03-13T03:41:01;99936.00;;;15.10
63220;BMP180;49320;52.512;13.448;2023-03-13T03:43:27;99930.00;;;15.10
63220;BMP180;49320;52.512;13.448;2023-03-13T03:45:54;99932.00;;;15.20
63220;BMP180;49320;52.512;13.448;2023-03-13T03:48:21;99922.00;;;15.10
63220;BMP180;49320;52.512;13.448;2023-03-13T03:50:48;99919.00;;;15.20
63220;BMP180;49320;52.512;13.448;2023-03-13T03:53:15;99920.00;;;15.20
63220;BMP180;49320;52.512;13.448;2023-03-13T03:55:42;99922.00;;;15.20
63220;BMP180;49320;52.512;13.448;2023-03-13T03:58:09;99918.00;;;15.20
63220;BMP180;49320;52.512;13.448;2023-03-13T04:00:36;99915.00;;;15.20
63220;BMP180;49320;52.512;13.448;2023-03-13T04:03:03;99908.00;;;15.20
63220;BMP180;49320;52.512;13.448;2023-03-13T04:05:30;99898.00;;;15.20
63220;BMP180;49320;52.512;13.448;2023-03-13T04:07:57;99897.00;;;15.20
63220;BMP180;49320;52.512;13.448;2023-03-13T04:10:24;99884.00;;;15.20
63220;BMP180;49320;52.512;13.448;2023-03-13T04:12:51;99889.00;;;15.20
63220;BMP180;49320;52.512;13.448;2023-03-13T04:15:17;99896.00;;;15.20
63220;BMP180;49320;52.512;13.448;2023-03-13T04:17:44;99883.00;;;15.20
63220;BMP180;49320;52.512;13.448;2023-03-13T04:20:11;99880.00;;;15.20
63220;BMP180;49320;52.512;13.448;2023-03-13T04:22:40;99880.00;;;15.20
63220;BMP180;49320;52.512;13.448;2023-03-13T04:25:09;99868.00;;;15.20
63220;BMP180;49320;52.512;13.448;2023-03-13T04:27:35;99874.00;;;15.20
63220;BMP180;49320;52.512;13.448;2023-03-13T04:30:03;99863.00;;;15.20
63220;BMP180;49320;52.512;13.448;2023-03-13T04:32:30;99862.00;;;15.20
63220;BMP180;49320;52.512;13.448;2023-03-13T04:34:57;99855.00;;;15.20
63220;BMP180;49320;52.512;13.448;2023-03-13T04:37:24;99842.00;;;15.30
63220;BMP180;49320;52.512;13.448;2023-03-13T04:39:51;99844.00;;;15.30
63220;BMP180;49320;52.512;13.448;2023-03-13T04:42:18;99841.00;;;15.30
63220;BMP180;49320;52.512;13.448;2023-03-13T04:44:45;99842.00;;;15.30
63220;BMP180;49320;52.512;13.448;2023-03-13T04:47:12;99841.00;;;15.30
63220;BMP180;49320;52.512;13.448;2023-03-13T04:49:38;99834.00;;;15.30
63220;BMP180;49320;52.512;13.448;2023-03-13T04:52:06;99832.00;;;15.30
63220;BMP180;49320;52.512;13.448;2023-03-13T04:54:32;99812.00;;;15.30
63220;BMP180;49320;52.512;13.448;2023-03-13T04:56:59;99813.00;;;15.30
63220;BMP180;49320;52.512;13.448;2023-03-13T04:59:26;99825.00;;;15.30
63220;BMP180;49320;52.512;13.448;2023-03-13T05:01:53;99807.00;;;15.30
63220;BMP180;49320;52.512;13.448;2023-03-13T05:04:20;99810.00;;;15.30
63220;BMP180;49320;52.512;13.448;2023-03-13T05:06:46;99800.00;;;15.30
63220;BMP180;49320;52.512;13.448;2023-03-13T05:09:13;99802.00;;;15.30
63220;BMP180;49320;52.512;13.448;2023-03-13T05:11:40;99793.00;;;15.30
63220;BMP180;49320;52.512;13.448;2023-03-13T05:14:08;99776.00;;;15.30
63220;BMP180;49320;52.512;13.448;2023-03-13T05:16:37;99771.00;;;15.30
63220;BMP180;49320;52.512;13.448;2023-03-13T05:19:04;99760.00;;;15.30
63220;BMP180;49320;52.512;13.448;2023-03-13T05:21:31;99762.00;;;15.30
63220;BMP180;49320;52.512;13.448;2023-03-13T05:23:58;99756.00;;;15.30
63220;BMP180;49320;52.512;13.448;2023-03-13T05:26:25;99754.00;;;15.30
63220;BMP180;49320;52.512;13.448;2023-03-13T05:28:51;99760.00;;;15.30
63220;BMP180;49320;52.512;13.448;2023-03-13T05:31:18;99751.00;;;15.30
63220;BMP180;49320;52.512;13.448;2023-03-13T05:33:45;99751.00;;;15.30
63220;BMP180;49320;52.512;13.448;2023-03-13T05:36:12;99743.00;;;15.30
63220;BMP180;49320;52.512;13.448;2023-03-13T05:38:39;99738.00;;;15.30
63220;BMP180;49320;52.512;13.448;2023-03-13T05:41:06;99737.00;;;15.30
63220;BMP180;49320;52.512;13.448;2023-03-13T05:43:32;99735.00;;;15.30
63220;BMP180;49320;52.512;13.448;2023-03-13T05:45:59;99727.00;;;15.30
63220;BMP180;49320;52.512;13.448;2023-03-13T05:48:27;99724.00;;;15.30
63220;BMP180;49320;52.512;13.448;2023-03-13T05:50:54;99712.00;;;15.30
63220;BMP180;49320;52.512;13.448;2023-03-13T05:53:21;99710.00;;;15.30
63220;BMP180;49320;52.512;13.448;2023-03-13T05:55:48;99699.00;;;15.30
63220;BMP180;49320;52.512;13.448;2023-03-13T05:58:14;99697.00;;;15.30
63220;BMP180;49320;52.512;13.448;2023-03-13T06:00:41;99694.00;;;15.30
63220;BMP180;49320;52.512;13.448;2023-03-13T06:03:09;99685.00;;;15.30
63220;BMP180;49320;52.512;13.448;2023-03-13T06:05:39;99685.00;;;15.30
63220;BMP180;49320;52.512;13.448;2023-03-13T06:08:06;99686.00;;;15.30
63220;BMP180;49320;52.512;13.448;2023-03-13T06:10:33;99684.00;;;15.30
63220;BMP180;49320;52.512;13.448;2023-03-13T06:13:00;99680.00;;;15.30
63220;BMP180;49320;52.512;13.448;2023-03-13T06:15:52;99693.00;;;15.30
63220;BMP180;49320;52.512;13.448;2023-03-13T06:18:19;99679.00;;;15.30
63220;BMP180;49320;52.512;13.448;2023-03-13T06:20:48;99681.00;;;15.30
63220;BMP180;49320;52.512;13.448;2023-03-13T06:23:15;99656.00;;;15.30
63220;BMP180;49320;52.512;13.448;2023-03-13T06:25:46;99652.00;;;15.30
63220;BMP180;49320;52.512;13.448;2023-03-13T06:28:15;99658.00;;;15.30
63220;BMP180;49320;52.512;13.448;2023-03-13T06:30:42;99657.00;;;15.40
63220;BMP180;49320;52.512;13.448;2023-03-13T06:33:09;99649.00;;;15.40
63220;BMP180;49320;52.512;13.448;2023-03-13T06:35:40;99631.00;;;15.40
63220;BMP180;49320;52.512;13.448;2023-03-13T06:38:23;99632.00;;;15.40
63220;BMP180;49320;52.512;13.448;2023-03-13T06:40:50;99619.00;;;15.40
63220;BMP180;49320;52.512;13.448;2023-03-13T06:43:18;99617.00;;;15.40
63220;BMP180;49320;52.512;13.448;2023-03-13T06:45:45;99613.00;;;15.40
63220;BMP180;49320;52.512;13.448;2023-03-13T06:48:12;99608.00;;;15.50
63220;BMP180;49320;52.512;13.448;2023-03-13T06:50:40;99609.00;;;15.50
63220;BMP180;49320;52.512;13.448;2023-03-13T06:53:13;99596.00;;;15.60
63220;BMP180;49320;52.512;13.448;2023-03-13T06:55:41;99583.00;;;15.60
63220;BMP180;49320;52.512;13.448;2023-03-13T06:58:08;99577.00;;;15.60
63220;BMP180;49320;52.512;13.448;2023-03-13T07:00:54;99580.00;;;15.60
63220;BMP180;49320;52.512;13.448;2023-03-13T07:03:21;99570.00;;;15.70
63220;BMP180;49320;52.512;13.448;2023-03-13T07:05:54;99568.00;;;15.70
63220;BMP180;49320;52.512;13.448;2023-03-13T07:08:21;99563.00;;;15.70
63220;BMP180;49320;52.512;13.448;2023-03-13T07:10:48;99563.00;;;15.70
63220;BMP180;49320;52.512;13.448;2023-03-13T07:13:18;99565.00;;;15.70
63220;BMP180;49320;52.512;13.448;2023-03-13T07:15:48;99568.00;;;15.70
63220;BMP180;49320;52.512;13.448;2023-03-13T07:18:15;99564.00;;;15.80
63220;BMP180;49320;52.512;13.448;2023-03-13T07:20:43;99561.00;;;15.80
63220;BMP180;49320;52.512;13.448;2023-03-13T07:23:10;99567.00;;;15.80
63220;BMP180;49320;52.512;13.448;2023-03-13T07:25:36;99566.00;;;15.90
63220;BMP180;49320;52.512;13.448;2023-03-13T07:28:03;99563.00;;;15.90
63220;BMP180;49320;52.512;13.448;2023-03-13T07:30:30;99553.00;;;16.00
63220;BMP180;49320;52.512;13.448;2023-03-13T07:32:57;99551.00;;;16.00
63220;BMP180;49320;52.512;13.448;2023-03-13T07:35:24;99550.00;;;16.00
63220;BMP180;49320;52.512;13.448;2023-03-13T07:37:51;99545.00;;;16.00
63220;BMP180;49320;52.512;13.448;2023-03-13T07:40:18;99541.00;;;16.10
63220;BMP180;49320;52.512;13.448;2023-03-13T07:42:45;99540.00;;;16.10
63220;BMP180;49320;52.512;13.448;2023-03-13T07:45:12;99529.00;;;16.10
63220;BMP180;49320;52.512;13.448;2023-03-13T07:47:39;99538.00;;;16.10
63220;BMP180;49320;52.512;13.448;2023-03-13T07:50:06;99522.00;;;16.10
63220;BMP180;49320;52.512;13.448;2023-03-13T07:52:33;99514.00;;;16.20
63220;BMP180;49320;52.512;13.448;2023-03-13T07:55:00;99511.00;;;16.20
63220;BMP180;49320;52.512;13.448;2023-03-13T07:57:27;99507.00;;;16.20
63220;BMP180;49320;52.512;13.448;2023-03-13T07:59:54;99499.00;;;16.30
63220;BMP180;49320;52.512;13.448;2023-03-13T08:02:21;99494.00;;;16.30
63220;BMP180;49320;52.512;13.448;2023-03-13T08:04:51;99493.00;;;16.30
63220;BMP180;49320;52.512;13.448;2023-03-13T08:07:18;99489.00;;;16.30
63220;BMP180;49320;52.512;13.448;2023-03-13T08:09:46;99476.00;;;16.30
63220;BMP180;49320;52.512;13.448;2023-03-13T08:12:13;99490.00;;;16.30
63220;BMP180;49320;52.512;13.448;2023-03-13T08:14:39;99483.00;;;16.40
63220;BMP180;49320;52.512;13.448;2023-03-13T08:17:06;99474.00;;;16.40
63220;BMP180;49320;52.512;13.448;2023-03-13T08:19:33;99474.00;;;16.30
63220;BMP180;49320;52.512;13.448;2023-03-13T08:22:01;99466.00;;;16.30
63220;BMP180;49320;52.512;13.448;2023-03-13T08:24:28;99471.00;;;16.30
63220;BMP180;49320;52.512;13.448;2023-03-13T08:26:55;99470.00;;;16.30
63220;BMP180;49320;52.512;13.448;2023-03-13T08:29:21;99463.00;;;16.30
63220;BMP180;49320;52.512;13.448;2023-03-13T08:31:50;99460.00;;;16.30
63220;BMP180;49320;52.512;13.448;2023-03-13T08:34:18;99452.00;;;16.30
63220;BMP180;49320;52.512;13.448;2023-03-13T08:36:46;99442.00;;;16.30
63220;BMP180;49320;52.512;13.448;2023-03-13T08:39:17;99444.00;;;16.40
63220;BMP180;49320;52.512;13.448;2023-03-13T08:41:44;99438.00;;;16.40
63220;BMP180;49320;52.512;13.448;2023-03-13T08:44:15;99434.00;;;16.40
63220;BMP180;49320;52.512;13.448;2023-03-13T08:46:42;99435.00;;;16.40
63220;BMP180;49320;52.512;13.448;2023-03-13T08:49:11;99437.00;;;16.40
63220;BMP180;49320;52.512;13.448;2023-03-13T08:51:38;99436.00;;;16.40
63220;BMP180;49320;52.512;13.448;2023-03-13T08:54:05;99432.00;;;16.50
63220;BMP180;49320;52.512;13.448;2023-03-13T08:56:32;99430.00;;;16.50
63220;BMP180;49320;52.512;13.448;2023-03-13T08:59:03;99426.00;;;16.60
63220;BMP180;49320;52.512;13.448;2023-03-13T09:01:34;99416.00;;;16.60
63220;BMP180;49320;52.512;13.448;2023-03-13T09:04:03;99413.00;;;16.70
63220;BMP180;49320;52.512;13.448;2023-03-13T09:06:36;99420.00;;;16.70
63220;BMP180;49320;52.512;13.448;2023-03-13T09:09:05;99406.00;;;16.70
63220;BMP180;49320;52.512;13.448;2023-03-13T09:11:34;99408.00;;;16.80
63220;BMP180;49320;52.512;13.448;2023-03-13T09:14:01;99395.00;;;16.80
63220;BMP180;49320;52.512;13.448;2023-03-13T09:16:30;99393.00;;;16.80
63220;BMP180;49320;52.512;13.448;2023-03-13T09:18:58;99388.00;;;16.90
63220;BMP180;49320;52.512;13.448;2023-03-13T09:21:29;99397.00;;;16.90
63220;BMP180;49320;52.512;13.448;2023-03-13T09:23:56;99402.00;;;16.90
63220;BMP180;49320;52.512;13.448;2023-03-13T09:26:25;99389.00;;;17.00
63220;BMP180;49320;52.512;13.448;2023-03-13T09:28:53;99398.00;;;17.00
63220;BMP180;49320;52.512;13.448;2023-03-13T09:31:27;99394.00;;;17.10
63220;BMP180;49320;52.512;13.448;2023-03-13T09:33:56;99395.00;;;17.10
63220;BMP180;49320;52.512;13.448;2023-03-13T09:36:24;99401.00;;;17.10
63220;BMP180;49320;52.512;13.448;2023-03-13T09:38:54;99399.00;;;17.10
63220;BMP180;49320;52.512;13.448;2023-03-13T09:41:35;99388.00;;;17.10
63220;BMP180;49320;52.512;13.448;2023-03-13T09:44:28;99390.00;;;17.20
63220;BMP180;49320;52.512;13.448;2023-03-13T09:47:14;99388.00;;;17.20
63220;BMP180;49320;52.512;13.448;2023-03-13T09:49:58;99389.00;;;17.20
63220;BMP180;49320;52.512;13.448;2023-03-13T09:52:37;99370.00;;;17.20
63220;BMP180;49320;52.512;13.448;2023-03-13T09:55:29;99375.00;;;17.20
63220;BMP180;49320;52.512;13.448;2023-03-13T09:58:09;99377.00;;;17.20
63220;BMP180;49320;52.512;13.448;2023-03-13T10:00:45;99378.00;;;17.30
63220;BMP180;49320;52.512;13.448;2023-03-13T10:03:22;99365.00;;;17.30
63220;BMP180;49320;52.512;13.448;2023-03-13T10:06:18;99375.00;;;17.40
63220;BMP180;49320;52.512;13.448;2023-03-13T10:08:45;99382.00;;;17.40
63220;BMP180;49320;52.512;13.448;2023-03-13T10:11:24;99379.00;;;17.50
63220;BMP180;49320;52.512;13.448;2023-03-13T10:14:21;99362.00;;;17.50
63220;BMP180;49320;52.512;13.448;2023-03-13T10:17:03;99374.00;;;17.50
63220;BMP180;49320;52.512;13.448;2023-03-13T10:19:36;99372.00;;;17.50
63220;BMP180;49320;52.512;13.448;2023-03-13T10:22:15;99366.00;;;17.50
63220;BMP180;49320;52.512;13.448;2023-03-13T10:25:06;99372.00;;;17.50
63220;BMP180;49320;52.512;13.448;2023-03-13T10:27:44;99378.00;;;17.50
63220;BMP180;49320;52.512;13.448;2023-03-13T10:30:28;99363.00;;;17.60
63220;BMP180;49320;52.512;13.448;2023-03-13T10:33:18;99350.00;;;17.60
63220;BMP180;49320;52.512;13.448;2023-03-13T10:35:45;99358.00;;;17.70
63220;BMP180;49320;52.512;13.448;2023-03-13T10:38:24;99352.00;;;17.80
63220;BMP180;49320;52.512;13.448;2023-03-13T10:41:28;99345.00;;;17.90
63220;BMP180;49320;52.512;13.448;2023-03-13T10:44:14;99342.00;;;18.00
63220;BMP180;49320;52.512;13.448;2023-03-13T10:46:45;99338.00;;;18.10
63220;BMP180;49320;52.512;13.448;2023-03-13T10:49:19;99337.00;;;18.30
63220;BMP180;49320;52.512;13.448;2023-03-13T10:51:57;99330.00;;;18.40
63220;BMP180;49320;52.512;13.448;2023-03-13T10:54:29;99334.00;;;18.50
63220;BMP180;49320;52.512;13.448;2023-03-13T10:59:48;99332.00;;;18.80
63220;BMP180;49320;52.512;13.448;2023-03-13T11:02:31;99326.00;;;19.00
63220;BMP180;49320;52.512;13.448;2023-03-13T11:05:00;99327.00;;;19.10
63220;BMP180;49320;52.512;13.448;2023-03-13T11:07:32;99313.00;;;19.20
63220;BMP180;49320;52.512;13.448;2023-03-13T11:10:21;99311.00;;;19.40
63220;BMP180;49320;52.512;13.448;2023-03-13T11:12:53;99310.00;;;19.50
63220;BMP180;49320;52.512;13.448;2023-03-13T11:15:41;99310.00;;;19.60
63220;BMP180;49320;52.512;13.448;2023-03-13T11:18:29;99290.00;;;19.70
63220;BMP180;49320;52.512;13.448;2023-03-13T11:21:02;99285.00;;;19.90
63220;BMP180;49320;52.512;13.448;2023-03-13T11:23:53;99280.00;;;20.00
63220;BMP180;49320;52.512;13.448;2023-03-13T11:26:47;99289.00;;;20.20
63220;BMP180;49320;52.512;13.448;2023-03-13T11:29:57;99282.00;;;20.40
63220;BMP180;49320;52.512;13.448;2023-03-13T11:32:59;99276.00;;;20.50
63220;BMP180;49320;52.512;13.448;2023-03-13T11:35:44;99275.00;;;20.50
63220;BMP180;49320;52.512;13.448;2023-03-13T11:38:32;99277.00;;;20.70
63220;BMP180;49320;52.512;13.448;2023-03-13T11:44:28;99290.00;;;20.90
63220;BMP180;49320;52.512;13.448;2023-03-13T11:50:07;99277.00;;;21.00
63220;BMP180;49320;52.512;13.448;2023-03-13T11:53:14;99278.00;;;21.10
63220;BMP180;49320;52.512;13.448;2023-03-13T11:58:56;99275.00;;;21.20
63220;BMP180;49320;52.512;13.448;2023-03-13T12:01:28;99270.00;;;21.20
63220;BMP180;49320;52.512;13.448;2023-03-13T12:04:00;99276.00;;;21.30
63220;BMP180;49320;52.512;13.448;2023-03-13T12:06:58;99264.00;;;21.40
63220;BMP180;49320;52.512;13.448;2023-03-13T12:09:53;99253.00;;;21.50
63220;BMP180;49320;52.512;13.448;2023-03-13T12:12:38;99266.00;;;21.50
63220;BMP180;49320;52.512;13.448;2023-03-13T12:15:27;99262.00;;;21.50
63220;BMP180;49320;52.512;13.448;2023-03-13T12:18:04;99260.00;;;21.50
63220;BMP180;49320;52.512;13.448;2023-03-13T12:20:53;99255.00;;;21.60
63220;BMP180;49320;52.512;13.448;2023-03-13T12:24:12;99251.00;;;21.70
63220;BMP180;49320;52.512;13.448;2023-03-13T12:26:56;99268.00;;;21.80
63220;BMP180;49320;52.512;13.448;2023-03-13T12:29:45;99251.00;;;21.90
63220;BMP180;49320;52.512;13.448;2023-03-13T12:32:38;99239.00;;;22.00
63220;BMP180;49320;52.512;13.448;2023-03-13T12:35:27;99245.00;;;22.00
63220;BMP180;49320;52.512;13.448;2023-03-13T12:38:25;99244.00;;;22.00
63220;BMP180;49320;52.512;13.448;2023-03-13T12:41:39;99241.00;;;22.00
63220;BMP180;49320;52.512;13.448;2023-03-13T12:44:17;99237.00;;;22.10
63220;BMP180;49320;52.512;13.448;2023-03-13T12:47:15;99237.00;;;22.20
63220;BMP180;49320;52.512;13.448;2023-03-13T12:50:28;99227.00;;;22.30
63220;BMP180;49320;52.512;13.448;2023-03-13T12:59:26;99217.00;;;22.30
63220;BMP180;49320;52.512;13.448;2023-03-13T13:01:55;99222.00;;;22.30
63220;BMP180;49320;52.512;13.448;2023-03-13T13:04:26;99222.00;;;22.30
63220;BMP180;49320;52.512;13.448;2023-03-13T13:07:05;99215.00;;;22.40
63220;BMP180;49320;52.512;13.448;2023-03-13T13:09:38;99209.00;;;22.50
63220;BMP180;49320;52.512;13.448;2023-03-13T13:12:25;99211.00;;;22.60
63220;BMP180;49320;52.512;13.448;2023-03-13T13:14:56;99212.00;;;22.70
63220;BMP180;49320;52.512;13.448;2023-03-13T13:17:50;99201.00;;;22.90
63220;BMP180;49320;52.512;13.448;2023-03-13T13:20:42;99201.00;;;23.10
63220;BMP180;49320;52.512;13.448;2023-03-13T13:23:36;99195.00;;;23.20
63220;BMP180;49320;52.512;13.448;2023-03-13T13:28:57;99197.00;;;23.30
63220;BMP180;49320;52.512;13.448;2023-03-13T13:37:02;99184.00;;;23.50
63220;BMP180;49320;52.512;13.448;2023-03-13T13:39:39;99175.00;;;23.50
63220;BMP180;49320;52.512;13.448;2023-03-13T13:45:30;99174.00;;;23.40
63220;BMP180;49320;52.512;13.448;2023-03-13T13:48:24;99180.00;;;23.50
63220;BMP180;49320;52.512;13.448;2023-03-13T13:53:47;99189.00;;;23.50
63220;BMP180;49320;52.512;13.448;2023-03-13T13:59:42;99178.00;;;23.50
63220;BMP180;49320;52.512;13.448;2023-03-13T14:04:40;99165.00;;;23.50
63220;BMP180;49320;52.512;13.448;2023-03-13T14:10:39;99177.00;;;23.60
63220;BMP180;49320;52.512;13.448;2023-03-13T14:13:21;99178.00;;;23.70
63220;BMP180;49320;52.512;13.448;2023-03-13T14:15:52;99166.00;;;23.70
63220;BMP180;49320;52.512;13.448;2023-03-13T14:18:27;99168.00;;;23.70
63220;BMP180;49320;52.512;13.448;2023-03-13T14:21:05;99164.00;;;23.70
63220;BMP180;49320;52.512;13.448;2023-03-13T14:23:43;99163.00;;;23.70
63220;BMP180;49320;52.512;13.448;2023-03-13T14:26:24;99166.00;;;23.70
63220;BMP180;49320;52.512;13.448;2023-03-13T14:28:55;99171.00;;;23.70
63220;BMP180;49320;52.512;13.448;2023-03-13T14:31:34;99169.00;;;23.80
63220;BMP180;49320;52.512;13.448;2023-03-13T14:34:05;99168.00;;;23.80
63220;BMP180;49320;52.512;13.448;2023-03-13T14:36:57;99163.00;;;23.80
63220;BMP180;49320;52.512;13.448;2023-03-13T14:39:44;99161.00;;;23.80
63220;BMP180;49320;52.512;13.448;2023-03-13T14:42:15;99166.00;;;23.80
63220;BMP180;49320;52.512;13.448;2023-03-13T14:44:45;99160.00;;;23.80
63220;BMP180;49320;52.512;13.448;2023-03-13T14:47:24;99153.00;;;23.90
63220;BMP180;49320;52.512;13.448;2023-03-13T14:50:07;99150.00;;;23.90
63220;BMP180;49320;52.512;13.448;2023-03-13T14:52:35;99157.00;;;23.90
63220;BMP180;49320;52.512;13.448;2023-03-13T14:55:26;99161.00;;;23.90
63220;BMP180;49320;52.512;13.448;2023-03-13T14:57:58;99153.00;;;23.80
63220;BMP180;49320;52.512;13.448;2023-03-13T15:00:37;99144.00;;;23.80
63220;BMP180;49320;52.512;13.448;2023-03-13T15:03:32;99144.00;;;23.80
63220;BMP180;49320;52.512;13.448;2023-03-13T15:09:31;99137.00;;;23.70
63220;BMP180;49320;52.512;13.448;2023-03-13T15:11:32;99134.00;;;23.70
63220;BMP180;49320;52.512;13.448;2023-03-13T15:14:00;99135.00;;;23.70
63220;BMP180;49320;52.512;13.448;2023-03-13T15:16:27;99126.00;;;23.60
63220;BMP180;49320;52.512;13.448;2023-03-13T15:18:55;99120.00;;;23.60
63220;BMP180;49320;52.512;13.448;2023-03-13T15:21:31;99118.00;;;23.70
63220;BMP180;49320;52.512;13.448;2023-03-13T15:24:12;99112.00;;;23.70